Time;durP1;ratioP1;P1;durP2;ratioP2;P2;SDS_P1;SDS_P2;PMS_P1;PMS_P2;Temp;Humidity;BMP_temperature;BMP_pressure;BME280_temperature;BME280_humidity;BME280_pressure;Samples;Min_cycle;Max_cycle;Signal;HPM_P1;HPM_P2
2023/01/08 00:01:34;;;;;;;3.97;1.40;;;;;;;;;;4950741;28;93050;-67
2023/01/08 00:04:01;;;;;;;4.57;1.50;;;;;;;;;;4934886;28;93608;-68
2023/01/08 00:06:27;;;;;;;11.02;1.48;;;;;;;;;;4935892;28;92555;-68
2023/01/08 00:08:53;;;;;;;2.22;1.20;;;;;;;;;;4938758;28;93420;-68
2023/01/08 00:11:20;;;;;;;5.70;1.60;;;;;;;;;;4934338;28;92742;-67
2023/01/08 00:13:46;;;;;;;6.65;1.65;;;;;;;;;;4936479;28;93131;-68
2023/01/08 00:16:15;;;;;;;7.80;2.05;;;;;;;;;;4934541;28;93484;-68
2023/01/08 00:18:42;;;;;;;8.15;2.00;;;;;;;;;;4934508;28;92715;-68
2023/01/08 00:21:08;;;;;;;7.43;1.48;;;;;;;;;;4931927;28;94881;-68
2023/01/08 00:23:35;;;;;;;4.10;1.42;;;;;;;;;;4933687;28;93387;-68
2023/01/08 00:26:05;;;;;;;2.67;1.20;;;;;;;;;;4935799;28;92645;-68
2023/01/08 00:28:32;;;;;;;5.53;1.83;;;;;;;;;;4939230;28;93131;-68
2023/01/08 00:31:00;;;;;;;12.40;3.28;;;;;;;;;;4938757;28;93438;-68
2023/01/08 00:33:30;;;;;;;5.80;1.50;;;;;;;;;;4935309;28;93641;-68
2023/01/08 00:35:56;;;;;;;11.10;3.25;;;;;;;;;;4934826;28;93726;-68
2023/01/08 00:38:26;;;;;;;15.30;4.28;;;;;;;;;;4936554;28;91705;-68
2023/01/08 00:40:53;;;;;;;9.47;2.53;;;;;;;;;;4935582;28;92779;-68
2023/01/08 00:43:19;;;;;;;8.10;2.13;;;;;;;;;;4935726;28;93388;-68
2023/01/08 00:45:45;;;;;;;5.40;2.20;;;;;;;;;;4933568;28;96650;-68
2023/01/08 00:48:12;;;;;;;9.55;2.00;;;;;;;;;;4934269;28;96723;-68
2023/01/08 00:50:38;;;;;;;8.45;2.05;;;;;;;;;;4935692;28;93386;-68
2023/01/08 00:53:04;;;;;;;11.07;2.60;;;;;;;;;;4939109;28;92463;-67
2023/01/08 00:55:31;;;;;;;8.55;2.63;;;;;;;;;;4935070;28;93222;-67
2023/01/08 00:57:57;;;;;;;5.97;2.50;;;;;;;;;;4935308;28;92673;-68
2023/01/08 01:00:24;;;;;;;5.00;2.22;;;;;;;;;;4934667;28;93349;-68
2023/01/08 01:02:50;;;;;;;7.05;2.15;;;;;;;;;;4933142;28;93501;-67
2023/01/08 01:05:18;;;;;;;8.00;2.95;;;;;;;;;;4932687;28;92849;-67
2023/01/08 01:07:45;;;;;;;4.90;2.53;;;;;;;;;;4938609;28;93164;-68
2023/01/08 01:10:12;;;;;;;5.85;2.53;;;;;;;;;;4936231;28;97021;-68
2023/01/08 01:12:38;;;;;;;6.95;2.55;;;;;;;;;;4935712;28;92584;-67
2023/01/08 01:15:05;;;;;;;4.20;2.20;;;;;;;;;;4938026;28;92495;-68
2023/01/08 01:17:32;;;;;;;4.15;2.15;;;;;;;;;;4937442;28;92508;-68
2023/01/08 01:19:58;;;;;;;5.95;2.53;;;;;;;;;;4933469;28;93434;-67
2023/01/08 01:22:24;;;;;;;5.13;2.08;;;;;;;;;;4932655;28;93449;-67
2023/01/08 01:24:51;;;;;;;3.72;1.95;;;;;;;;;;4934812;28;92464;-68
2023/01/08 01:27:17;;;;;;;5.10;2.17;;;;;;;;;;4936520;28;91895;-68
2023/01/08 01:29:43;;;;;;;4.25;1.90;;;;;;;;;;4933958;28;93812;-67
2023/01/08 01:32:10;;;;;;;6.45;2.03;;;;;;;;;;4934307;28;92433;-67
2023/01/08 01:34:36;;;;;;;7.63;2.20;;;;;;;;;;4935957;28;94765;-68
2023/01/08 01:37:03;;;;;;;5.18;1.80;;;;;;;;;;4933111;28;93041;-68
2023/01/08 01:39:30;;;;;;;8.38;2.35;;;;;;;;;;4933896;28;93416;-68
2023/01/08 01:41:56;;;;;;;5.60;2.35;;;;;;;;;;4934731;28;93559;-68
2023/01/08 01:44:35;;;;;;;5.43;1.75;;;;;;;;;;4932808;28;92552;-69
2023/01/08 01:47:04;;;;;;;3.35;1.65;;;;;;;;;;4934663;28;93137;-68
2023/01/08 01:49:31;;;;;;;9.00;2.30;;;;;;;;;;4933433;28;93661;-68
2023/01/08 01:52:01;;;;;;;6.55;2.03;;;;;;;;;;4934336;28;91862;-69
2023/01/08 01:54:28;;;;;;;8.20;2.13;;;;;;;;;;4934713;28;92527;-68
2023/01/08 01:56:55;;;;;;;7.88;2.15;;;;;;;;;;4939925;28;94762;-67
2023/01/08 01:59:21;;;;;;;5.13;1.77;;;;;;;;;;4946349;28;96516;-68
2023/01/08 02:01:48;;;;;;;2.88;1.27;;;;;;;;;;4939211;28;93731;-68
2023/01/08 02:04:15;;;;;;;4.85;1.17;;;;;;;;;;4935201;28;92571;-68
2023/01/08 02:06:45;;;;;;;5.80;1.30;;;;;;;;;;4941531;28;93980;-68
2023/01/08 02:09:11;;;;;;;;;;;;;;;;;;4946228;28;93527;-68
2023/01/08 02:11:41;;;;;;;2.40;1.00;;;;;;;;;;4944632;28;118400;-68
2023/01/08 02:14:10;;;;;;;4.73;1.50;;;;;;;;;;4941029;28;92497;-68
2023/01/08 02:16:36;;;;;;;2.50;0.90;;;;;;;;;;4935437;28;95869;-68
2023/01/08 02:19:12;;;;;;;1.92;1.08;;;;;;;;;;4942270;28;92440;-68
2023/01/08 02:21:51;;;;;;;3.22;1.38;;;;;;;;;;4937922;28;93443;-68
2023/01/08 02:24:29;;;;;;;4.03;1.30;;;;;;;;;;4928799;28;94870;-68
2023/01/08 02:26:57;;;;;;;6.28;2.42;;;;;;;;;;4933477;28;94158;-68
2023/01/08 02:29:24;;;;;;;5.70;1.98;;;;;;;;;;4932516;28;93166;-68
2023/01/08 02:31:51;;;;;;;3.72;1.50;;;;;;;;;;4933084;28;92463;-68
2023/01/08 02:34:17;;;;;;;4.22;1.50;;;;;;;;;;4934417;28;93670;-68
2023/01/08 02:36:45;;;;;;;5.82;1.90;;;;;;;;;;4934605;28;94556;-68
2023/01/08 02:39:30;;;;;;;7.03;1.67;;;;;;;;;;4933729;28;92517;-68
2023/01/08 02:42:05;;;;;;;5.05;1.50;;;;;;;;;;4918649;28;93094;-68
2023/01/08 02:44:36;;;;;;;3.58;1.40;;;;;;;;;;4924929;28;92577;-68
2023/01/08 02:47:04;;;;;;;3.65;1.55;;;;;;;;;;4933026;28;93549;-68
2023/01/08 02:49:31;;;;;;;6.38;1.38;;;;;;;;;;4931684;28;95943;-68
2023/01/08 02:52:00;;;;;;;6.80;1.80;;;;;;;;;;4932485;28;93437;-68
2023/01/08 02:54:28;;;;;;;7.03;1.58;;;;;;;;;;4931595;28;93142;-69
2023/01/08 02:56:58;;;;;;;2.85;1.45;;;;;;;;;;4932309;28;93688;-68
2023/01/08 02:59:26;;;;;;;5.93;1.83;;;;;;;;;;4948214;28;92507;-68
2023/01/08 03:01:52;;;;;;;7.85;2.00;;;;;;;;;;4944807;28;93124;-68
2023/01/08 03:04:21;;;;;;;5.30;1.92;;;;;;;;;;4936970;28;93475;-68
2023/01/08 03:06:48;;;;;;;4.75;2.05;;;;;;;;;;4937522;28;93231;-68
2023/01/08 03:09:15;;;;;;;5.15;2.10;;;;;;;;;;4948606;28;93504;-68
2023/01/08 03:11:45;;;;;;;8.88;2.55;;;;;;;;;;4949008;28;93914;-68
2023/01/08 03:14:17;;;;;;;8.68;2.45;;;;;;;;;;4933365;28;94925;-68
2023/01/08 03:16:46;;;;;;;4.63;1.92;;;;;;;;;;4946456;28;93872;-69
2023/01/08 03:19:21;;;;;;;4.97;2.35;;;;;;;;;;4937822;28;93652;-68
2023/01/08 03:21:49;;;;;;;4.13;2.22;;;;;;;;;;4939221;28;93167;-68
2023/01/08 03:24:18;;;;;;;6.07;2.30;;;;;;;;;;4938267;28;95790;-68
2023/01/08 03:26:47;;;;;;;5.28;2.42;;;;;;;;;;4927562;28;92451;-68
2023/01/08 03:29:14;;;;;;;8.00;2.28;;;;;;;;;;4937478;28;93467;-68
2023/01/08 03:31:42;;;;;;;3.88;1.80;;;;;;;;;;4937824;28;91834;-68
2023/01/08 03:34:09;;;;;;;4.15;2.20;;;;;;;;;;4948144;28;92503;-68
2023/01/08 03:36:37;;;;;;;7.57;2.58;;;;;;;;;;4939013;28;93378;-68
2023/01/08 03:39:10;;;;;;;3.20;2.47;;;;;;;;;;4935689;28;96287;-69
2023/01/08 03:41:36;;;;;;;7.18;2.67;;;;;;;;;;4948932;28;95492;-68
2023/01/08 03:44:03;;;;;;;4.47;2.45;;;;;;;;;;4947120;28;93516;-67
2023/01/08 03:46:34;;;;;;;5.35;2.47;;;;;;;;;;4938778;28;92643;-68
2023/01/08 03:49:01;;;;;;;7.75;2.35;;;;;;;;;;4935882;28;94042;-67
2023/01/08 03:51:27;;;;;;;4.78;2.53;;;;;;;;;;4937003;28;92952;-67
2023/01/08 03:53:57;;;;;;;11.27;2.75;;;;;;;;;;4940710;28;92950;-67
2023/01/08 03:56:23;;;;;;;10.33;2.80;;;;;;;;;;4944510;28;92744;-68
2023/01/08 03:58:49;;;;;;;10.18;2.72;;;;;;;;;;4939225;28;92413;-67
2023/01/08 04:01:16;;;;;;;4.93;2.58;;;;;;;;;;4935744;28;93599;-67
2023/01/08 04:03:42;;;;;;;4.63;2.17;;;;;;;;;;4935537;28;95874;-67
2023/01/08 04:06:09;;;;;;;3.50;1.92;;;;;;;;;;4936970;28;93208;-67
2023/01/08 04:08:35;;;;;;;5.43;2.10;;;;;;;;;;4942635;28;92948;-68
2023/01/08 04:11:01;;;;;;;4.53;1.70;;;;;;;;;;4926120;28;92439;-68
2023/01/08 04:13:27;;;;;;;10.73;2.53;;;;;;;;;;4949419;28;93887;-68
2023/01/08 04:15:54;;;;;;;6.00;2.13;;;;;;;;;;4930920;28;94201;-68
2023/01/08 04:18:20;;;;;;;9.77;1.90;;;;;;;;;;4937545;28;92514;-67
2023/01/08 04:20:47;;;;;;;9.40;2.03;;;;;;;;;;4948970;28;93259;-68
2023/01/08 04:23:13;;;;;;;4.47;1.33;;;;;;;;;;4937270;28;93754;-68
2023/01/08 04:25:40;;;;;;;4.90;1.48;;;;;;;;;;4937945;28;93703;-67
2023/01/08 04:28:06;;;;;;;8.00;1.83;;;;;;;;;;4935626;28;95075;-68
2023/01/08 04:30:32;;;;;;;5.70;1.42;;;;;;;;;;4940504;28;95252;-68
2023/01/08 04:32:58;;;;;;;8.48;1.40;;;;;;;;;;4947422;28;93292;-68
2023/01/08 04:35:25;;;;;;;10.75;1.77;;;;;;;;;;4949642;28;93719;-68
2023/01/08 04:37:51;;;;;;;4.88;1.45;;;;;;;;;;4952721;28;93199;-66
2023/01/08 04:40:17;;;;;;;6.15;1.13;;;;;;;;;;4950407;28;92463;-68
2023/01/08 04:42:43;;;;;;;6.85;1.73;;;;;;;;;;4954398;28;93431;-68
2023/01/08 04:45:10;;;;;;;9.45;1.33;;;;;;;;;;4937037;28;92302;-68
2023/01/08 04:47:36;;;;;;;7.22;1.50;;;;;;;;;;4937331;28;93429;-68
2023/01/08 04:50:02;;;;;;;6.07;1.23;;;;;;;;;;4936771;28;94618;-68
2023/01/08 04:52:29;;;;;;;11.48;1.80;;;;;;;;;;4942374;28;94990;-68
2023/01/08 04:54:55;;;;;;;4.28;1.08;;;;;;;;;;4939243;28;93879;-68
2023/01/08 04:57:21;;;;;;;4.55;0.98;;;;;;;;;;4952704;28;92480;-68
2023/01/08 04:59:48;;;;;;;5.35;1.13;;;;;;;;;;4954008;28;94587;-68
2023/01/08 05:02:14;;;;;;;10.18;1.50;;;;;;;;;;4936949;28;94077;-68
2023/01/08 05:04:40;;;;;;;4.57;1.40;;;;;;;;;;4941364;28;92647;-68
2023/01/08 05:07:07;;;;;;;5.47;1.48;;;;;;;;;;4943925;28;93118;-67
2023/01/08 05:09:33;;;;;;;11.00;1.63;;;;;;;;;;4938801;28;92685;-68
2023/01/08 05:11:59;;;;;;;7.75;0.75;;;;;;;;;;4944464;28;92499;-68
2023/01/08 05:14:25;;;;;;;5.50;2.13;;;;;;;;;;4936761;28;93917;-68
2023/01/08 05:16:52;;;;;;;2.90;1.00;;;;;;;;;;4931478;28;94838;-68
2023/01/08 05:19:18;;;;;;;4.95;0.98;;;;;;;;;;4937929;28;95501;-69
2023/01/08 05:21:44;;;;;;;8.95;2.13;;;;;;;;;;4918276;28;93526;-68
2023/01/08 05:24:11;;;;;;;5.30;1.30;;;;;;;;;;4937054;28;92511;-68
2023/01/08 05:26:37;;;;;;;9.23;1.55;;;;;;;;;;4943298;28;92924;-68
2023/01/08 05:29:03;;;;;;;5.05;1.00;;;;;;;;;;4941661;28;93494;-68
2023/01/08 05:31:30;;;;;;;10.98;1.50;;;;;;;;;;4936391;28;92573;-67
2023/01/08 05:33:57;;;;;;;8.20;1.50;;;;;;;;;;4937674;28;93022;-68
2023/01/08 05:36:23;;;;;;;7.38;1.27;;;;;;;;;;4937638;28;93262;-67
2023/01/08 05:38:49;;;;;;;10.40;1.73;;;;;;;;;;4934591;28;93460;-68
2023/01/08 05:41:16;;;;;;;8.77;1.70;;;;;;;;;;4949544;28;95741;-68
2023/01/08 05:43:42;;;;;;;16.98;1.85;;;;;;;;;;4934360;28;92906;-68
2023/01/08 05:46:08;;;;;;;13.43;1.58;;;;;;;;;;4936534;28;93179;-68
2023/01/08 05:48:36;;;;;;;6.38;1.40;;;;;;;;;;4926410;28;93739;-68
2023/01/08 05:51:02;;;;;;;3.80;1.60;;;;;;;;;;4930531;28;93388;-68
2023/01/08 05:53:31;;;;;;;4.82;1.20;;;;;;;;;;4939706;28;93735;-68
2023/01/08 05:55:58;;;;;;;6.82;1.50;;;;;;;;;;4937357;28;93402;-68
2023/01/08 05:58:26;;;;;;;9.57;1.65;;;;;;;;;;4935377;28;93155;-68
2023/01/08 06:00:52;;;;;;;8.07;1.60;;;;;;;;;;4932907;28;93480;-69
2023/01/08 06:03:21;;;;;;;4.45;1.27;;;;;;;;;;4926392;28;93577;-68
2023/01/08 06:05:48;;;;;;;6.65;2.00;;;;;;;;;;4935035;28;95520;-68
2023/01/08 06:08:15;;;;;;;9.43;1.73;;;;;;;;;;4934724;28;93298;-68
2023/01/08 06:10:41;;;;;;;11.60;2.03;;;;;;;;;;4932673;28;92785;-68
2023/01/08 06:13:08;;;;;;;9.23;1.90;;;;;;;;;;4932034;28;93196;-69
2023/01/08 06:15:36;;;;;;;6.18;1.73;;;;;;;;;;4932536;28;93721;-68
2023/01/08 06:18:02;;;;;;;8.55;2.30;;;;;;;;;;4935201;28;94091;-68
2023/01/08 06:20:29;;;;;;;5.70;1.40;;;;;;;;;;4937679;28;93424;-68
2023/01/08 06:22:55;;;;;;;6.95;2.05;;;;;;;;;;4934174;28;91827;-68
2023/01/08 06:25:21;;;;;;;8.48;1.85;;;;;;;;;;4933491;28;93804;-68
2023/01/08 06:27:51;;;;;;;5.85;1.83;;;;;;;;;;4951638;28;93460;-68
2023/01/08 06:30:17;;;;;;;8.48;1.60;;;;;;;;;;4932814;28;95710;-68
2023/01/08 06:32:44;;;;;;;4.95;1.77;;;;;;;;;;4943356;28;96152;-68
2023/01/08 06:35:10;;;;;;;6.50;1.90;;;;;;;;;;4943523;28;93415;-68
2023/01/08 06:37:36;;;;;;;8.18;1.92;;;;;;;;;;4938707;28;92927;-68
2023/01/08 06:40:03;;;;;;;10.57;1.80;;;;;;;;;;4940107;28;93208;-68
2023/01/08 06:42:29;;;;;;;10.80;2.00;;;;;;;;;;4941617;28;92486;-68
2023/01/08 06:44:55;;;;;;;15.10;2.70;;;;;;;;;;4939420;28;93167;-68
2023/01/08 06:47:22;;;;;;;10.38;2.08;;;;;;;;;;4938427;28;92749;-68
2023/01/08 06:49:48;;;;;;;8.15;1.70;;;;;;;;;;4935030;28;92554;-68
2023/01/08 06:52:14;;;;;;;4.28;2.05;;;;;;;;;;4936643;28;93508;-68
2023/01/08 06:54:41;;;;;;;6.18;1.48;;;;;;;;;;4934654;28;95649;-68
2023/01/08 06:57:07;;;;;;;9.35;1.90;;;;;;;;;;4936589;28;92562;-68
2023/01/08 06:59:33;;;;;;;8.38;1.42;;;;;;;;;;4946074;28;93383;-67
2023/01/08 07:02:00;;;;;;;7.10;2.10;;;;;;;;;;4938998;28;94485;-68
2023/01/08 07:04:26;;;;;;;13.40;1.88;;;;;;;;;;4936001;28;93115;-68
2023/01/08 07:06:53;;;;;;;6.53;1.60;;;;;;;;;;4948113;28;93772;-68
2023/01/08 07:09:19;;;;;;;4.63;1.40;;;;;;;;;;4937333;28;92799;-68
2023/01/08 07:11:45;;;;;;;6.43;1.40;;;;;;;;;;4944548;28;93218;-68
2023/01/08 07:14:12;;;;;;;7.53;1.35;;;;;;;;;;4942794;28;93553;-68
2023/01/08 07:16:38;;;;;;;7.40;1.52;;;;;;;;;;4936738;28;92732;-69
2023/01/08 07:19:04;;;;;;;5.63;1.42;;;;;;;;;;4934556;28;95104;-68
2023/01/08 07:21:31;;;;;;;9.50;2.15;;;;;;;;;;4936239;28;94426;-68
2023/01/08 07:23:58;;;;;;;9.40;1.77;;;;;;;;;;4937019;28;92739;-68
2023/01/08 07:26:25;;;;;;;8.38;1.60;;;;;;;;;;4944875;28;93572;-68
2023/01/08 07:28:51;;;;;;;12.30;2.42;;;;;;;;;;4941038;28;92593;-68
2023/01/08 07:31:17;;;;;;;5.55;1.38;;;;;;;;;;4929473;28;93244;-68
2023/01/08 07:33:44;;;;;;;4.00;1.40;;;;;;;;;;4933870;28;94477;-68
2023/01/08 07:36:10;;;;;;;6.22;1.63;;;;;;;;;;4946835;28;92492;-68
2023/01/08 07:38:36;;;;;;;6.25;1.63;;;;;;;;;;4936679;28;92666;-68
2023/01/08 07:41:03;;;;;;;6.13;1.50;;;;;;;;;;4936787;28;95913;-68
2023/01/08 07:43:29;;;;;;;4.10;1.20;;;;;;;;;;4937129;28;97158;-68
2023/01/08 07:45:56;;;;;;;8.55;1.85;;;;;;;;;;4943653;28;93576;-68
2023/01/08 07:48:23;;;;;;;10.27;1.70;;;;;;;;;;4944065;28;92480;-68
2023/01/08 07:50:49;;;;;;;8.50;1.70;;;;;;;;;;4937677;28;94917;-67
2023/01/08 07:53:16;;;;;;;7.18;1.25;;;;;;;;;;4939378;28;93617;-67
2023/01/08 07:55:43;;;;;;;6.25;1.83;;;;;;;;;;4939974;28;92469;-67
2023/01/08 07:58:10;;;;;;;4.93;1.70;;;;;;;;;;4937969;28;92393;-67
2023/01/08 08:00:36;;;;;;;6.47;1.42;;;;;;;;;;4951380;28;93130;-68
2023/01/08 08:03:06;;;;;;;10.48;2.25;;;;;;;;;;4939098;28;93327;-67
2023/01/08 08:05:33;;;;;;;4.30;1.38;;;;;;;;;;4940162;28;93873;-68
2023/01/08 08:07:59;;;;;;;6.53;1.48;;;;;;;;;;4940337;28;95388;-67
2023/01/08 08:10:26;;;;;;;8.02;1.70;;;;;;;;;;4950465;28;95614;-67
2023/01/08 08:12:52;;;;;;;11.43;2.80;;;;;;;;;;4935150;28;93531;-68
2023/01/08 08:15:18;;;;;;;10.13;2.55;;;;;;;;;;4935019;28;92725;-67
2023/01/08 08:17:45;;;;;;;7.05;1.65;;;;;;;;;;4937292;28;94069;-67
2023/01/08 08:20:11;;;;;;;9.40;1.50;;;;;;;;;;4934434;28;93673;-67
2023/01/08 08:22:38;;;;;;;10.98;2.17;;;;;;;;;;4935041;28;92496;-67
2023/01/08 08:25:04;;;;;;;15.85;2.10;;;;;;;;;;4933253;28;93145;-67
2023/01/08 08:27:30;;;;;;;15.50;2.00;;;;;;;;;;4937495;28;93431;-68
2023/01/08 08:29:57;;;;;;;19.92;1.90;;;;;;;;;;4931131;28;93150;-68
2023/01/08 08:32:23;;;;;;;11.05;1.45;;;;;;;;;;4933261;28;95997;-68
2023/01/08 08:34:49;;;;;;;10.52;1.88;;;;;;;;;;4935649;28;94092;-67
2023/01/08 08:37:15;;;;;;;12.43;1.80;;;;;;;;;;4935428;28;93055;-67
2023/01/08 08:39:42;;;;;;;16.85;2.47;;;;;;;;;;4936066;28;93763;-68
2023/01/08 08:42:08;;;;;;;16.00;1.67;;;;;;;;;;4935796;28;92505;-68
2023/01/08 08:44:34;;;;;;;11.85;1.88;;;;;;;;;;4933173;28;93118;-68
2023/01/08 08:47:01;;;;;;;19.42;1.95;;;;;;;;;;4937731;28;93849;-68
2023/01/08 08:49:27;;;;;;;16.10;2.20;;;;;;;;;;4936719;28;91736;-68
2023/01/08 08:51:53;;;;;;;15.35;2.33;;;;;;;;;;4916533;28;93729;-68
2023/01/08 08:54:19;;;;;;;16.65;3.22;;;;;;;;;;4916580;28;92430;-68
2023/01/08 08:56:47;;;;;;;6.80;1.52;;;;;;;;;;4915079;28;94843;-68
2023/01/08 08:59:13;;;;;;;10.85;2.10;;;;;;;;;;4915257;28;93503;-68
2023/01/08 09:01:39;;;;;;;5.85;1.55;;;;;;;;;;4916602;28;92470;-68
2023/01/08 09:04:06;;;;;;;11.50;2.17;;;;;;;;;;4916214;28;93405;-68
2023/01/08 09:06:32;;;;;;;13.73;2.03;;;;;;;;;;4916241;28;94112;-68
2023/01/08 09:08:59;;;;;;;10.80;2.25;;;;;;;;;;4916578;28;92370;-68
2023/01/08 09:11:25;;;;;;;16.48;2.35;;;;;;;;;;4919450;28;93183;-68
2023/01/08 09:13:51;;;;;;;9.00;1.75;;;;;;;;;;4916693;28;91678;-68
2023/01/08 09:16:18;;;;;;;17.38;3.20;;;;;;;;;;4927704;28;93462;-68
2023/01/08 09:18:44;;;;;;;13.80;2.78;;;;;;;;;;4935598;28;93559;-68
2023/01/08 09:21:10;;;;;;;10.98;2.50;;;;;;;;;;4932724;28;94929;-68
2023/01/08 09:23:38;;;;;;;17.00;2.42;;;;;;;;;;4936158;28;92448;-68
2023/01/08 09:26:05;;;;;;;11.25;1.98;;;;;;;;;;4934077;28;93526;-68
2023/01/08 09:28:31;;;;;;;7.35;1.85;;;;;;;;;;4935283;28;92508;-68
2023/01/08 09:31:01;;;;;;;13.07;3.00;;;;;;;;;;4935794;28;93309;-68
2023/01/08 09:33:28;;;;;;;12.67;2.30;;;;;;;;;;4937406;28;94698;-68
2023/01/08 09:35:54;;;;;;;12.55;2.22;;;;;;;;;;4935567;28;93174;-68
2023/01/08 09:38:20;;;;;;;12.27;2.30;;;;;;;;;;4935812;28;92716;-68
2023/01/08 09:41:02;;;;;;;10.30;2.63;;;;;;;;;;4935466;28;92433;-68
2023/01/08 09:43:30;;;;;;;16.13;3.60;;;;;;;;;;4935903;28;92356;-68
2023/01/08 09:46:00;;;;;;;15.65;2.42;;;;;;;;;;4933847;28;95813;-68
2023/01/08 09:48:27;;;;;;;;;;;;;;;;;;4935628;28;94083;-68
2023/01/08 09:50:53;;;;;;;16.38;3.05;;;;;;;;;;4936172;28;123428;-69
2023/01/08 09:53:19;;;;;;;21.58;3.00;;;;;;;;;;4945167;28;93476;-68
2023/01/08 09:55:51;;;;;;;12.00;3.33;;;;;;;;;;4941885;28;93180;-68
2023/01/08 09:58:36;;;;;;;13.65;3.70;;;;;;;;;;4932526;28;93508;-68
2023/01/08 10:01:04;;;;;;;18.02;4.05;;;;;;;;;;4935351;28;92454;-68
2023/01/08 10:03:41;;;;;;;23.33;5.13;;;;;;;;;;4935096;28;93102;-68
2023/01/08 10:06:08;;;;;;;13.90;2.95;;;;;;;;;;4935872;28;93873;-68
2023/01/08 10:08:35;;;;;;;15.18;3.10;;;;;;;;;;4938593;28;92459;-68
2023/01/08 10:11:02;;;;;;;14.25;2.42;;;;;;;;;;4937152;28;94810;-68
2023/01/08 10:13:28;;;;;;;8.77;2.10;;;;;;;;;;4938344;28;92366;-68
2023/01/08 10:15:55;;;;;;;11.68;2.45;;;;;;;;;;4941938;28;92374;-69
2023/01/08 10:18:22;;;;;;;14.40;2.15;;;;;;;;;;4937842;28;93555;-68
2023/01/08 10:20:49;;;;;;;10.23;2.00;;;;;;;;;;4938524;28;92445;-68
2023/01/08 10:23:17;;;;;;;9.25;2.60;;;;;;;;;;4936832;28;93629;-68
2023/01/08 10:25:47;;;;;;;18.30;2.70;;;;;;;;;;4937115;28;93263;-68
2023/01/08 10:28:21;;;;;;;7.93;2.42;;;;;;;;;;4938686;28;91692;-67
2023/01/08 10:30:48;;;;;;;17.65;2.55;;;;;;;;;;4938174;28;92446;-68
2023/01/08 10:33:25;;;;;;;10.40;2.00;;;;;;;;;;4937892;28;93217;-68
2023/01/08 10:35:54;;;;;;;7.13;2.05;;;;;;;;;;4936545;28;94969;-68
2023/01/08 10:38:29;;;;;;;13.05;2.05;;;;;;;;;;4940864;28;95634;-69
2023/01/08 10:41:05;;;;;;;7.72;1.85;;;;;;;;;;4938327;28;92470;-69
2023/01/08 10:43:52;;;;;;;11.68;2.20;;;;;;;;;;4938311;28;94164;-69
2023/01/08 10:46:23;;;;;;;9.30;1.85;;;;;;;;;;4936594;28;93631;-68
2023/01/08 10:48:52;;;;;;;12.05;2.35;;;;;;;;;;4938075;28;92352;-68
2023/01/08 10:51:28;;;;;;;7.47;1.70;;;;;;;;;;4938390;28;93444;-69
2023/01/08 10:53:57;;;;;;;10.23;1.95;;;;;;;;;;4936811;28;93157;-66
2023/01/08 10:56:25;;;;;;;7.22;2.10;;;;;;;;;;4938023;28;92461;-66
2023/01/08 10:58:52;;;;;;;8.27;2.15;;;;;;;;;;4937766;28;93643;-66
2023/01/08 11:01:28;;;;;;;10.68;2.28;;;;;;;;;;4939152;28;95635;-66
2023/01/08 11:03:56;;;;;;;8.98;2.30;;;;;;;;;;4935945;28;95958;-67
2023/01/08 11:06:24;;;;;;;7.30;2.08;;;;;;;;;;4937344;28;93231;-68
2023/01/08 11:08:52;;;;;;;10.45;2.30;;;;;;;;;;4934150;28;92632;-66
2023/01/08 11:11:18;;;;;;;9.52;2.85;;;;;;;;;;4955014;28;93173;-66
2023/01/08 11:13:51;;;;;;;9.00;2.08;;;;;;;;;;4942646;28;93395;-66
2023/01/08 11:16:17;;;;;;;7.80;1.90;;;;;;;;;;4941918;28;92507;-66
2023/01/08 11:18:48;;;;;;;8.40;1.92;;;;;;;;;;4934888;28;94120;-66
2023/01/08 11:21:25;;;;;;;8.63;2.22;;;;;;;;;;4937166;28;93725;-66
2023/01/08 11:24:03;;;;;;;10.85;2.70;;;;;;;;;;4937636;28;92676;-66
2023/01/08 11:26:30;;;;;;;8.23;1.98;;;;;;;;;;4946895;28;95855;-66
2023/01/08 11:28:56;;;;;;;11.02;2.60;;;;;;;;;;4949686;28;92732;-66
2023/01/08 11:31:40;;;;;;;5.35;1.73;;;;;;;;;;4937210;28;93423;-66
2023/01/08 11:34:14;;;;;;;5.07;1.75;;;;;;;;;;4932795;28;93810;-66
2023/01/08 11:36:47;;;;;;;9.57;2.00;;;;;;;;;;4930628;28;92525;-66
2023/01/08 11:39:14;;;;;;;7.43;1.90;;;;;;;;;;4937569;28;92679;-66
2023/01/08 11:41:59;;;;;;;7.85;2.30;;;;;;;;;;4936432;28;93227;-67
2023/01/08 11:44:40;;;;;;;8.50;3.25;;;;;;;;;;4941657;28;91785;-67
2023/01/08 11:47:13;;;;;;;6.88;3.53;;;;;;;;;;4939744;28;92435;-66
2023/01/08 11:49:57;;;;;;;11.60;2.72;;;;;;;;;;4932770;28;92438;-66
2023/01/08 11:52:29;;;;;;;4.63;2.03;;;;;;;;;;4923793;28;95217;-66
2023/01/08 11:55:06;;;;;;;4.00;1.73;;;;;;;;;;4953874;28;93785;-67
2023/01/08 11:57:44;;;;;;;6.18;1.95;;;;;;;;;;4955367;28;92776;-66
2023/01/08 12:00:17;;;;;;;6.78;2.15;;;;;;;;;;4951668;28;93748;-67
2023/01/08 12:02:49;;;;;;;7.68;2.05;;;;;;;;;;4944901;28;93483;-67
2023/01/08 12:05:28;;;;;;;5.22;1.80;;;;;;;;;;4947791;28;92548;-67
2023/01/08 12:07:57;;;;;;;4.90;1.75;;;;;;;;;;4952205;28;93197;-68
2023/01/08 12:10:29;;;;;;;5.97;1.90;;;;;;;;;;4950693;28;91756;-66
2023/01/08 12:13:34;;;;;;;5.38;2.10;;;;;;;;;;4940079;28;94250;-66
2023/01/08 12:16:15;;;;;;;7.50;1.92;;;;;;;;;;4851233;28;92778;-66
2023/01/08 12:19:00;;;;;;;6.25;2.72;;;;;;;;;;4855819;28;94906;-66
2023/01/08 12:21:31;;;;;;;6.82;1.80;;;;;;;;;;4856401;28;95511;-66
2023/01/08 12:23:57;;;;;;;4.47;2.08;;;;;;;;;;4835497;28;93344;-66
2023/01/08 12:26:42;;;;;;;4.90;2.03;;;;;;;;;;4865345;28;92847;-67
2023/01/08 12:29:11;;;;;;;6.20;1.90;;;;;;;;;;4876214;28;93393;-67
2023/01/08 12:31:56;;;;;;;4.95;1.75;;;;;;;;;;4861876;28;93396;-67
2023/01/08 12:34:36;;;;;;;5.15;1.83;;;;;;;;;;4857113;28;93940;-66
2023/01/08 12:37:09;;;;;;;6.13;2.03;;;;;;;;;;4843162;28;92888;-66
2023/01/08 12:39:42;;;;;;;2.28;1.55;;;;;;;;;;4857833;29;92768;-66
2023/01/08 12:42:12;;;;;;;6.18;2.90;;;;;;;;;;4857408;29;93441;-66
2023/01/08 12:44:39;;;;;;;5.15;2.30;;;;;;;;;;4855181;28;95756;-67
2023/01/08 12:47:10;;;;;;;5.18;2.00;;;;;;;;;;4907521;28;92530;-66
2023/01/08 12:49:41;;;;;;;4.75;1.30;;;;;;;;;;4937238;28;94570;-67
2023/01/08 12:52:13;;;;;;;3.17;1.52;;;;;;;;;;4941350;28;93601;-66
2023/01/08 12:54:47;;;;;;;7.00;1.85;;;;;;;;;;4958527;28;92530;-66
2023/01/08 12:57:16;;;;;;;7.13;1.50;;;;;;;;;;4953348;28;92415;-67
2023/01/08 12:59:45;;;;;;;2.30;1.40;;;;;;;;;;4951230;28;92789;-67
2023/01/08 13:02:30;;;;;;;2.75;1.35;;;;;;;;;;4954650;28;93137;-66
2023/01/08 13:04:56;;;;;;;2.47;1.60;;;;;;;;;;4949742;28;92473;-66
2023/01/08 13:07:26;;;;;;;4.38;1.80;;;;;;;;;;4949134;28;93305;-67
2023/01/08 13:09:56;;;;;;;2.45;1.10;;;;;;;;;;4943775;28;94936;-67
2023/01/08 13:12:27;;;;;;;3.28;1.30;;;;;;;;;;4933488;28;93774;-67
2023/01/08 13:14:53;;;;;;;8.70;1.33;;;;;;;;;;4934286;28;92881;-67
2023/01/08 13:17:21;;;;;;;6.65;1.50;;;;;;;;;;4938374;28;93103;-67
2023/01/08 13:19:52;;;;;;;3.05;1.58;;;;;;;;;;4934581;28;92789;-66
2023/01/08 13:22:28;;;;;;;6.57;1.50;;;;;;;;;;4952691;28;93107;-67
2023/01/08 13:25:13;;;;;;;4.30;1.35;;;;;;;;;;4936817;28;93647;-67
2023/01/08 13:27:40;;;;;;;4.60;1.20;;;;;;;;;;4955391;28;91707;-66
2023/01/08 13:30:25;;;;;;;3.83;1.10;;;;;;;;;;4939579;28;92475;-67
2023/01/08 13:32:51;;;;;;;5.30;1.75;;;;;;;;;;4945901;28;93444;-67
2023/01/08 13:35:20;;;;;;;5.20;1.45;;;;;;;;;;4952179;28;94830;-67
2023/01/08 13:37:50;;;;;;;2.97;1.40;;;;;;;;;;4955040;28;95682;-67
2023/01/08 13:40:34;;;;;;;7.03;1.50;;;;;;;;;;4938990;28;93266;-67
2023/01/08 13:43:01;;;;;;;5.07;1.17;;;;;;;;;;4941773;28;92767;-67
2023/01/08 13:45:29;;;;;;;6.32;1.73;;;;;;;;;;4942266;28;93559;-67
2023/01/08 13:47:55;;;;;;;5.68;1.33;;;;;;;;;;4935705;28;92372;-67
2023/01/08 13:50:25;;;;;;;4.82;1.33;;;;;;;;;;4933504;28;93459;-67
2023/01/08 13:53:01;;;;;;;6.60;1.27;;;;;;;;;;4938956;28;92759;-66
2023/01/08 13:55:30;;;;;;;3.47;1.40;;;;;;;;;;4952556;28;94341;-67
2023/01/08 13:58:01;;;;;;;4.82;1.73;;;;;;;;;;4936238;28;93277;-66
2023/01/08 14:00:40;;;;;;;9.20;2.63;;;;;;;;;;4932821;28;97244;-66
2023/01/08 14:03:21;;;;;;;3.33;1.20;;;;;;;;;;4937705;28;92483;-66
2023/01/08 14:05:48;;;;;;;3.67;1.30;;;;;;;;;;4941458;28;93309;-66
2023/01/08 14:08:21;;;;;;;7.20;1.90;;;;;;;;;;4934811;28;92917;-67
2023/01/08 14:10:48;;;;;;;7.90;1.60;;;;;;;;;;4933780;28;93577;-67
2023/01/08 14:13:15;;;;;;;13.27;2.08;;;;;;;;;;4932829;28;93520;-67
2023/01/08 14:15:41;;;;;;;4.78;1.13;;;;;;;;;;4935073;28;92557;-67
2023/01/08 14:18:10;;;;;;;13.25;1.67;;;;;;;;;;4954878;28;93054;-67
2023/01/08 14:20:37;;;;;;;10.07;3.50;;;;;;;;;;4953984;28;93621;-67
2023/01/08 14:23:09;;;;;;;13.10;4.75;;;;;;;;;;4954277;28;92697;-67
2023/01/08 14:25:35;;;;;;;13.80;2.97;;;;;;;;;;4943522;28;96173;-67
2023/01/08 14:28:03;;;;;;;8.07;2.20;;;;;;;;;;4953513;28;92410;-67
2023/01/08 14:30:29;;;;;;;7.30;2.65;;;;;;;;;;4931852;28;92586;-68
2023/01/08 14:32:56;;;;;;;7.25;2.80;;;;;;;;;;4934581;28;93561;-67
2023/01/08 14:35:28;;;;;;;10.35;2.00;;;;;;;;;;4944691;28;92584;-68
2023/01/08 14:37:54;;;;;;;6.72;2.03;;;;;;;;;;4948279;28;93159;-67
2023/01/08 14:40:50;;;;;;;8.05;1.95;;;;;;;;;;4933766;28;93819;-67
2023/01/08 14:43:18;;;;;;;5.07;1.67;;;;;;;;;;4921891;28;91699;-67
2023/01/08 14:45:49;;;;;;;10.00;2.13;;;;;;;;;;4943681;28;92731;-67
2023/01/08 14:48:18;;;;;;;9.93;1.80;;;;;;;;;;4946476;28;92557;-68
2023/01/08 14:50:53;;;;;;;9.82;1.90;;;;;;;;;;4940260;28;94964;-67